createdAt,value
2022-08-17T00:01:40.916Z,6.40
2022-08-17T00:04:19.012Z,6.55
2022-08-17T00:06:45.907Z,6.47
2022-08-17T00:09:18.316Z,7.75
2022-08-17T00:12:41.533Z,6.22
2022-08-17T00:14:35.171Z,6.20
2022-08-17T00:17:03.818Z,7.20
2022-08-17T00:19:32.362Z,7.07
2022-08-17T00:22:35.123Z,6.85
2022-08-17T00:24:46.900Z,6.70
2022-08-17T00:27:13.357Z,7.55
2022-08-17T00:29:39.795Z,6.38
2022-08-17T00:33:15.647Z,7.63
2022-08-17T00:34:52.919Z,7.10
2022-08-17T00:37:19.394Z,6.88
2022-08-17T00:39:45.834Z,6.53
2022-08-17T00:42:17.575Z,7.75
2022-08-17T00:44:44.498Z,6.67
2022-08-17T00:47:10.866Z,8.63
2022-08-17T00:49:37.257Z,7.13
2022-08-17T00:52:12.039Z,8.20
2022-08-17T00:54:42.567Z,6.93
2022-08-17T00:57:21.442Z,7.95
2022-08-17T01:05:00.629Z,7.32
2022-08-17T01:07:27.723Z,6.82
2022-08-17T01:09:54.861Z,6.40
2022-08-17T01:12:21.524Z,6.47
2022-08-17T01:14:48.474Z,6.47
2022-08-17T01:17:14.995Z,7.07
2022-08-17T01:19:42.586Z,7.32
2022-08-17T01:22:08.987Z,7.63
2022-08-17T01:24:39.451Z,7.30
2022-08-17T01:27:10.388Z,8.05
2022-08-17T01:29:39.347Z,7.07
2022-08-17T01:32:07.862Z,7.50
2022-08-17T01:34:42.638Z,6.95
2022-08-17T01:37:12.459Z,7.93
2022-08-17T01:39:45.064Z,6.50
2022-08-17T01:44:44.424Z,6.70
2022-08-17T01:47:10.872Z,8.30
2022-08-17T01:49:39.890Z,6.82
2022-08-17T01:52:09.558Z,7.88
2022-08-17T01:54:39.318Z,6.55
2022-08-17T01:57:06.038Z,7.05
2022-08-17T01:59:33.498Z,6.88
2022-08-17T02:02:00.439Z,6.88
2022-08-17T02:04:26.982Z,7.18
2022-08-17T02:06:54.597Z,7.32
2022-08-17T02:09:25.639Z,6.90
2022-08-17T02:11:56.915Z,7.82
2022-08-17T02:14:24.708Z,7.82
2022-08-17T02:16:52.189Z,7.07
2022-08-17T02:19:19.052Z,6.97
2022-08-17T02:21:47.993Z,6.93
2022-08-17T02:25:00.288Z,7.97
2022-08-17T02:27:18.645Z,7.40
2022-08-17T02:29:45.174Z,6.80
2022-08-17T02:32:27.450Z,8.27
2022-08-17T02:34:55.003Z,7.05
2022-08-17T02:37:21.519Z,7.07
2022-08-17T02:39:47.945Z,6.80
2022-08-17T02:42:15.050Z,7.47
2022-08-17T02:44:41.776Z,6.90
2022-08-17T02:47:10.605Z,7.75
2022-08-17T02:49:39.243Z,6.57
2022-08-17T02:52:07.577Z,7.10
2022-08-17T02:54:39.692Z,6.82
2022-08-17T02:57:07.488Z,7.47
2022-08-17T02:59:33.977Z,6.78
2022-08-17T03:02:00.603Z,6.85
2022-08-17T03:04:27.166Z,6.93
2022-08-17T03:06:53.558Z,6.68
2022-08-17T03:09:19.966Z,6.40
2022-08-17T03:11:55.938Z,6.82
2022-08-17T03:14:26.353Z,6.60
2022-08-17T03:16:52.893Z,6.68
2022-08-17T03:19:19.290Z,6.93
2022-08-17T03:21:45.652Z,6.60
2022-08-17T03:24:12.033Z,7.88
2022-08-17T03:26:38.406Z,6.93
2022-08-17T03:29:04.770Z,7.40
2022-08-17T03:31:31.473Z,6.53
2022-08-17T03:33:58.044Z,6.88
2022-08-17T03:36:25.256Z,6.65
2022-08-17T03:38:51.692Z,6.55
2022-08-17T03:41:18.104Z,7.93
2022-08-17T03:43:44.466Z,6.10
2022-08-17T03:46:35.016Z,7.40
2022-08-17T03:49:26.019Z,7.05
2022-08-17T03:52:12.909Z,6.38
2022-08-17T03:55:00.149Z,6.45
2022-08-17T03:57:27.193Z,6.20
2022-08-17T03:59:54.451Z,6.38
2022-08-17T04:02:29.626Z,6.32
2022-08-17T04:04:56.627Z,6.35
2022-08-17T04:07:27.413Z,6.53
2022-08-17T04:09:54.599Z,6.05
2022-08-17T04:12:22.685Z,6.18
2022-08-17T04:14:53.107Z,6.80
2022-08-17T04:17:28.083Z,6.20
2022-08-17T04:19:55.516Z,6.15
2022-08-17T04:22:30.132Z,6.50
2022-08-17T04:25:18.441Z,6.25
2022-08-17T04:27:44.809Z,5.80
2022-08-17T04:30:12.453Z,7.07
2022-08-17T04:33:03.419Z,6.28
2022-08-17T04:35:35.963Z,6.72
2022-08-17T04:38:02.383Z,6.45
2022-08-17T04:40:47.438Z,6.03
2022-08-17T04:43:18.663Z,6.78
2022-08-17T04:45:56.923Z,6.20
2022-08-17T04:48:33.387Z,5.95
2022-08-17T04:51:10.582Z,6.90
2022-08-17T04:53:38.541Z,5.82
2022-08-17T04:56:05.354Z,7.10
2022-08-17T04:58:31.764Z,5.90
2022-08-17T05:00:58.253Z,5.95
2022-08-17T05:03:24.667Z,6.05
2022-08-17T05:05:51.152Z,6.03
2022-08-17T05:08:19.799Z,6.57
2022-08-17T05:10:47.426Z,6.22
2022-08-17T05:13:20.921Z,6.57
2022-08-17T05:15:49.947Z,6.35
2022-08-17T05:18:17.324Z,6.15
2022-08-17T05:20:45.082Z,6.03
2022-08-17T05:23:14.637Z,7.00
2022-08-17T05:25:47.585Z,6.00
2022-08-17T05:28:16.303Z,6.80
2022-08-17T05:30:44.570Z,5.95
2022-08-17T05:33:14.781Z,7.15
2022-08-17T05:35:44.531Z,5.93
2022-08-17T05:38:10.934Z,6.88
2022-08-17T05:40:38.242Z,5.70
2022-08-17T05:43:09.109Z,6.90
2022-08-17T05:45:55.305Z,6.28
2022-08-17T05:48:39.690Z,6.45
2022-08-17T05:51:27.283Z,6.90
2022-08-17T05:54:28.993Z,6.45
2022-08-17T05:57:32.268Z,6.18
2022-08-17T06:00:18.352Z,6.70
2022-08-17T06:03:14.783Z,6.20
2022-08-17T06:06:09.262Z,6.78
2022-08-17T06:09:11.015Z,6.38
2022-08-17T06:11:43.210Z,6.40
2022-08-17T06:14:38.266Z,6.88
2022-08-17T06:17:10.802Z,6.90
2022-08-17T06:19:54.491Z,6.68
2022-08-17T06:22:23.382Z,6.28
2022-08-17T06:24:56.822Z,6.50
2022-08-17T06:27:36.246Z,6.15
2022-08-17T06:30:11.179Z,6.88
2022-08-17T06:32:40.358Z,6.30
2022-08-17T06:35:09.335Z,6.97
2022-08-17T06:37:49.595Z,6.68
2022-08-17T06:40:37.543Z,6.47
2022-08-17T06:43:19.291Z,7.38
2022-08-17T06:45:50.331Z,6.32
2022-08-17T06:48:27.818Z,6.75
2022-08-17T06:51:07.213Z,6.38
2022-08-17T06:53:42.904Z,6.95
2022-08-17T06:56:21.379Z,6.80
2022-08-17T06:58:48.294Z,6.30
2022-08-17T07:01:20.828Z,7.30
2022-08-17T07:06:42.727Z,6.70
2022-08-17T07:09:18.526Z,7.20
2022-08-17T07:12:02.566Z,6.15
2022-08-17T07:14:39.876Z,6.45
2022-08-17T07:17:13.811Z,7.13
2022-08-17T07:19:42.385Z,6.97
2022-08-17T07:22:20.950Z,7.68
2022-08-17T07:24:52.486Z,6.88
2022-08-17T07:27:30.914Z,6.90
2022-08-17T07:30:11.677Z,7.30
2022-08-17T07:32:45.221Z,6.93
2022-08-17T07:35:20.975Z,7.60
2022-08-17T07:38:07.038Z,6.70
2022-08-17T07:41:01.083Z,6.63
2022-08-17T07:43:31.971Z,7.25
2022-08-17T07:46:17.293Z,6.88
2022-08-17T07:48:49.679Z,7.88
2022-08-17T07:51:25.168Z,7.28
2022-08-17T07:53:53.776Z,6.80
2022-08-17T07:56:44.271Z,7.28
2022-08-17T07:59:12.365Z,8.38
2022-08-17T08:01:44.388Z,7.43
2022-08-17T08:07:20.443Z,7.60
2022-08-17T08:10:01.712Z,6.88
2022-08-17T08:12:39.409Z,7.18
2022-08-17T08:15:11.903Z,7.85
2022-08-17T08:20:51.260Z,8.75
2022-08-17T08:23:11.950Z,7.80
2022-08-17T08:25:44.424Z,7.40
2022-08-17T08:30:57.486Z,7.20
2022-08-17T08:34:02.746Z,7.43
2022-08-17T08:36:59.343Z,6.55
2022-08-17T08:39:46.207Z,7.28
2022-08-17T08:42:25.673Z,8.18
2022-08-17T08:45:05.504Z,7.78
2022-08-17T08:47:55.399Z,7.85
2022-08-17T08:50:40.188Z,8.05
2022-08-17T08:53:23.341Z,7.90
2022-08-17T08:56:02.687Z,7.25
2022-08-17T08:58:59.331Z,7.43
2022-08-17T09:01:43.920Z,7.47
2022-08-17T09:05:10.644Z,8.02
2022-08-17T09:07:46.370Z,7.00
2022-08-17T09:10:27.726Z,7.68
2022-08-17T09:13:23.848Z,7.10
2022-08-17T09:15:58.867Z,7.07
2022-08-17T09:19:01.517Z,7.10
2022-08-17T09:21:33.801Z,7.43
2022-08-17T09:24:12.670Z,7.68
2022-08-17T09:26:59.370Z,6.97
2022-08-17T09:29:29.386Z,7.20
2022-08-17T09:31:59.581Z,7.18
2022-08-17T09:34:36.631Z,7.18
2022-08-17T09:37:22.511Z,7.45
2022-08-17T09:40:15.098Z,7.47
2022-08-17T09:42:52.394Z,6.72
2022-08-17T09:45:30.008Z,7.80
2022-08-17T09:48:01.941Z,6.90
2022-08-17T09:50:55.320Z,7.28
2022-08-17T09:53:22.970Z,7.43
2022-08-17T09:56:12.355Z,7.22
2022-08-17T09:59:00.444Z,7.80
2022-08-17T10:01:37.805Z,7.78
2022-08-17T10:04:20.422Z,8.27
2022-08-17T10:09:36.526Z,8.02
2022-08-17T10:12:30.441Z,7.75
2022-08-17T10:15:13.309Z,8.05
2022-08-17T10:18:11.048Z,7.50
2022-08-17T10:21:19.733Z,8.18
2022-08-17T10:24:09.669Z,7.72
2022-08-17T10:26:46.275Z,7.55
2022-08-17T10:29:48.578Z,8.20
2022-08-17T10:32:37.510Z,8.15
2022-08-17T10:35:25.603Z,8.07
2022-08-17T10:38:25.442Z,7.95
2022-08-17T10:40:58.944Z,7.13
2022-08-17T10:44:37.515Z,7.88
2022-08-17T10:46:55.590Z,8.13
2022-08-17T10:49:29.362Z,8.00
2022-08-17T10:52:01.868Z,8.10
2022-08-17T10:54:40.460Z,8.70
2022-08-17T10:57:29.791Z,8.85
2022-08-17T10:59:58.255Z,7.80
2022-08-17T11:02:50.083Z,8.57
2022-08-17T11:05:41.471Z,8.90
2022-08-17T11:08:22.255Z,9.15
2022-08-17T11:11:26.317Z,8.65
2022-08-17T11:14:24.501Z,8.05
2022-08-17T11:17:06.221Z,8.10
2022-08-17T11:20:05.403Z,8.52
2022-08-17T11:22:47.045Z,8.02
2022-08-17T11:25:31.450Z,8.75
2022-08-17T11:28:09.327Z,8.70
2022-08-17T11:30:48.686Z,8.35
2022-08-17T11:33:33.945Z,9.32
2022-08-17T11:36:21.882Z,9.93
2022-08-17T11:38:57.754Z,9.70
2022-08-17T11:41:30.296Z,9.98
2022-08-17T11:44:17.998Z,9.57
2022-08-17T11:46:45.118Z,9.48
2022-08-17T11:50:07.430Z,10.50
2022-08-17T11:52:38.627Z,8.98
2022-08-17T11:55:34.061Z,9.52
2022-08-17T11:58:08.454Z,9.40
2022-08-17T12:00:44.721Z,9.85
2022-08-17T12:03:23.502Z,11.90
2022-08-17T12:06:00.965Z,9.10
2022-08-17T12:08:32.532Z,9.68
2022-08-17T12:11:04.480Z,9.60
2022-08-17T12:13:39.411Z,10.23
2022-08-17T12:16:07.132Z,10.88
2022-08-17T12:18:37.424Z,10.45
2022-08-17T12:21:24.631Z,9.65
2022-08-17T12:24:32.182Z,10.25
2022-08-17T12:27:01.253Z,10.27
2022-08-17T12:29:35.630Z,10.02
2022-08-17T12:32:07.032Z,10.52
2022-08-17T12:34:42.472Z,9.98
2022-08-17T12:37:32.089Z,10.50
2022-08-17T12:40:05.818Z,9.32
2022-08-17T12:42:37.357Z,10.55
2022-08-17T12:45:07.418Z,9.13
2022-08-17T12:47:37.107Z,10.82
2022-08-17T12:50:29.014Z,10.27
2022-08-17T12:55:35.035Z,10.73
2022-08-17T12:58:02.366Z,9.73
2022-08-17T13:00:47.536Z,11.23
2022-08-17T13:06:10.970Z,9.20
2022-08-17T13:08:44.484Z,11.07
2022-08-17T13:11:13.673Z,10.60
2022-08-17T13:13:44.856Z,10.10
2022-08-17T13:16:14.349Z,10.63
2022-08-17T13:18:50.153Z,12.30
2022-08-17T13:21:19.221Z,10.50
2022-08-17T13:24:03.899Z,10.63
2022-08-17T13:26:50.799Z,11.75
2022-08-17T13:29:31.184Z,11.02
2022-08-17T13:32:09.068Z,10.80
2022-08-17T13:37:36.764Z,11.43
2022-08-17T13:40:09.496Z,10.45
2022-08-17T13:42:51.935Z,11.85
2022-08-17T13:45:35.131Z,10.75
2022-08-17T13:48:08.805Z,10.90
2022-08-17T13:51:03.065Z,12.20
2022-08-17T13:53:53.913Z,11.15
2022-08-17T13:56:37.558Z,11.23
2022-08-17T13:59:09.679Z,10.82
2022-08-17T14:01:42.275Z,10.98
2022-08-17T14:04:14.402Z,9.85
2022-08-17T14:07:01.377Z,11.63
2022-08-17T14:09:37.269Z,10.38
2022-08-17T14:12:10.639Z,9.95
2022-08-17T14:14:37.735Z,11.23
2022-08-17T14:17:05.052Z,10.40
2022-08-17T14:19:34.477Z,10.77
2022-08-17T14:22:01.764Z,10.77
2022-08-17T14:24:29.962Z,10.95
2022-08-17T14:26:57.660Z,10.35
2022-08-17T14:29:27.925Z,9.50
2022-08-17T14:31:58.158Z,9.25
2022-08-17T14:34:25.358Z,10.48
2022-08-17T14:36:52.764Z,10.55
2022-08-17T14:39:20.183Z,11.20
2022-08-17T14:41:46.958Z,10.63
2022-08-17T14:44:13.727Z,10.95
2022-08-17T14:46:42.092Z,11.27
2022-08-17T14:49:12.582Z,9.73
2022-08-17T14:51:44.051Z,11.35
2022-08-17T14:54:29.483Z,10.02
2022-08-17T14:57:14.805Z,11.02
2022-08-17T14:59:45.401Z,10.23
2022-08-17T15:02:12.205Z,9.48
2022-08-17T15:04:43.411Z,12.48
2022-08-17T15:07:11.839Z,10.95
2022-08-17T15:09:38.490Z,11.88
2022-08-17T15:12:08.288Z,10.00
2022-08-17T15:14:37.374Z,11.93
2022-08-17T15:17:03.864Z,10.48
2022-08-17T15:19:30.729Z,12.02
2022-08-17T15:21:57.441Z,10.10
2022-08-17T15:24:26.760Z,11.15
2022-08-17T15:26:53.151Z,11.73
2022-08-17T15:29:19.526Z,11.25
2022-08-17T15:35:04.026Z,11.18
2022-08-17T15:37:31.995Z,12.68
2022-08-17T15:40:00.623Z,11.02
2022-08-17T15:42:27.884Z,11.50
2022-08-17T15:44:55.138Z,10.30
2022-08-17T15:47:22.266Z,10.05
2022-08-17T15:49:49.155Z,9.30
2022-08-17T15:52:28.914Z,10.13
2022-08-17T15:54:58.373Z,10.55
2022-08-17T15:57:27.477Z,11.15
2022-08-17T15:59:58.888Z,9.90
2022-08-17T16:03:16.068Z,11.15
2022-08-17T16:05:24.821Z,10.25
2022-08-17T16:08:03.274Z,10.10
2022-08-17T16:10:34.825Z,9.93
2022-08-17T16:13:06.347Z,10.35
2022-08-17T16:15:58.878Z,9.45
2022-08-17T16:18:45.774Z,9.48
2022-08-17T16:21:43.092Z,8.57
2022-08-17T16:24:14.854Z,8.68
2022-08-17T16:26:49.092Z,9.32
2022-08-17T16:29:15.545Z,8.85
2022-08-17T16:31:44.993Z,10.68
2022-08-17T16:34:27.208Z,9.00
2022-08-17T16:36:58.918Z,8.15
2022-08-17T16:39:37.004Z,8.30
2022-08-17T16:42:04.882Z,9.05
2022-08-17T16:44:32.387Z,9.05
2022-08-17T16:47:01.235Z,8.77
2022-08-17T16:49:36.635Z,8.20
2022-08-17T16:52:06.644Z,8.13
2022-08-17T16:54:37.119Z,9.13
2022-08-17T16:57:06.029Z,8.27
2022-08-17T16:59:41.922Z,8.82
2022-08-17T17:02:12.703Z,8.00
2022-08-17T17:05:28.487Z,8.73
2022-08-17T17:08:12.742Z,7.70
2022-08-17T17:10:47.645Z,8.98
2022-08-17T17:13:32.228Z,8.38
2022-08-17T17:16:14.447Z,8.23
2022-08-17T17:18:56.372Z,9.27
2022-08-17T17:21:33.969Z,8.25
2022-08-17T17:24:10.558Z,7.80
2022-08-17T17:26:55.281Z,8.48
2022-08-17T17:29:24.520Z,7.72
2022-08-17T17:32:17.302Z,7.47
2022-08-17T17:37:33.917Z,7.20
2022-08-17T17:40:06.754Z,7.72
2022-08-17T17:42:33.697Z,8.25
2022-08-17T17:45:21.729Z,7.78
2022-08-17T17:47:48.191Z,8.02
2022-08-17T17:50:20.358Z,7.53
2022-08-17T17:53:04.341Z,7.25
2022-08-17T17:55:49.494Z,7.63
2022-08-17T17:58:33.205Z,7.10
2022-08-17T18:01:47.952Z,7.38
2022-08-17T18:08:40.204Z,7.22
2022-08-17T18:11:15.278Z,7.03
2022-08-17T18:14:17.375Z,6.65
2022-08-17T18:16:48.957Z,8.10
2022-08-17T18:19:29.763Z,6.87
2022-08-17T18:22:17.569Z,6.70
2022-08-17T18:27:38.885Z,7.33
2022-08-17T18:30:32.583Z,6.90
2022-08-17T18:34:14.633Z,7.50
2022-08-17T18:37:01.115Z,6.80
2022-08-17T18:39:56.115Z,7.95
2022-08-17T18:45:17.951Z,6.78
2022-08-17T18:48:27.802Z,8.23
2022-08-17T18:51:02.076Z,7.25
2022-08-17T18:53:38.396Z,7.38
2022-08-17T18:56:42.484Z,6.95
2022-08-17T18:59:29.269Z,6.88
2022-08-17T19:02:23.214Z,7.22
2022-08-17T19:05:39.430Z,6.90
2022-08-17T19:08:42.681Z,6.88
2022-08-17T19:14:27.625Z,6.78
2022-08-17T19:17:02.284Z,6.75
2022-08-17T19:19:42.661Z,6.35
2022-08-17T19:23:05.279Z,6.75
2022-08-17T19:25:37.245Z,7.20
2022-08-17T19:31:58.909Z,6.50
2022-08-17T19:35:07.414Z,6.85
2022-08-17T19:45:12.668Z,7.13
2022-08-17T19:51:07.231Z,6.93
2022-08-17T19:54:05.407Z,6.97
2022-08-17T19:56:48.618Z,6.75
2022-08-17T19:59:41.344Z,7.22
2022-08-17T20:02:40.210Z,7.03
2022-08-17T20:06:14.477Z,10.57
2022-08-17T20:09:03.510Z,11.13
2022-08-17T20:11:59.607Z,6.90
2022-08-17T20:15:08.659Z,7.60
2022-08-17T20:17:48.458Z,7.07
2022-08-17T20:21:20.257Z,7.45
2022-08-17T20:24:12.639Z,7.20
2022-08-17T20:27:12.694Z,7.07
2022-08-17T20:30:08.357Z,6.68
2022-08-17T20:33:12.477Z,7.15
2022-08-17T20:36:16.601Z,6.80
2022-08-17T20:41:30.703Z,7.78
2022-08-17T20:44:13.465Z,7.47
2022-08-17T20:50:25.801Z,7.72
2022-08-17T20:52:47.826Z,7.72
2022-08-17T20:55:52.205Z,9.50
2022-08-17T20:58:29.930Z,9.45
2022-08-17T21:01:10.935Z,7.25
2022-08-17T21:06:25.392Z,7.20
2022-08-17T21:09:16.940Z,7.25
2022-08-17T21:12:05.520Z,7.32
2022-08-17T21:14:44.221Z,7.43
2022-08-17T21:17:29.599Z,8.77
2022-08-17T21:20:17.645Z,7.80
2022-08-17T21:23:06.014Z,7.65
2022-08-17T21:25:49.373Z,8.45
2022-08-17T21:28:59.968Z,7.95
2022-08-17T21:31:52.188Z,7.53
2022-08-17T21:34:25.925Z,8.15
2022-08-17T21:37:15.666Z,8.13
2022-08-17T21:39:48.163Z,7.72
2022-08-17T21:42:15.633Z,8.18
2022-08-17T21:45:08.659Z,7.43
2022-08-17T21:50:57.639Z,8.80
2022-08-17T21:53:33.859Z,8.63
2022-08-17T21:56:01.950Z,8.65
2022-08-17T21:58:35.623Z,8.57
2022-08-17T22:01:24.704Z,8.43
2022-08-17T22:04:18.062Z,8.00
2022-08-17T22:06:52.551Z,8.38
2022-08-17T22:09:40.683Z,8.27
2022-08-17T22:12:21.662Z,8.95
2022-08-17T22:15:04.083Z,7.82
2022-08-17T22:17:36.623Z,7.75
2022-08-17T22:20:14.300Z,9.48
2022-08-17T22:23:08.826Z,9.57
2022-08-17T22:25:40.557Z,9.27
2022-08-17T22:28:10.575Z,10.90
2022-08-17T22:30:42.157Z,9.40
2022-08-17T22:33:39.928Z,9.93
2022-08-17T22:36:09.178Z,9.27
2022-08-17T22:38:37.616Z,8.65
2022-08-17T22:41:27.753Z,9.77
2022-08-17T22:43:57.536Z,9.02
2022-08-17T22:46:24.377Z,8.32
2022-08-17T22:49:01.827Z,9.25
2022-08-17T22:51:30.860Z,8.95
2022-08-17T22:54:21.215Z,9.15
2022-08-17T22:57:14.244Z,9.23
2022-08-17T22:59:54.892Z,8.63
2022-08-17T23:02:25.421Z,8.93
2022-08-17T23:05:15.748Z,10.85
2022-08-17T23:07:44.701Z,9.15
2022-08-17T23:10:13.841Z,12.05
2022-08-17T23:12:40.573Z,9.15
2022-08-17T23:15:17.025Z,10.43
2022-08-17T23:17:44.499Z,10.55
2022-08-17T23:20:14.968Z,11.45
2022-08-17T23:22:51.794Z,10.35
2022-08-17T23:25:26.340Z,11.57
2022-08-17T23:27:53.093Z,11.68
2022-08-17T23:30:19.828Z,12.27
2022-08-17T23:32:53.590Z,10.63
2022-08-17T23:35:21.019Z,9.93
2022-08-17T23:38:07.566Z,11.70
2022-08-17T23:40:34.052Z,10.57
2022-08-17T23:43:00.626Z,11.95
2022-08-17T23:45:32.081Z,10.02
2022-08-17T23:47:58.453Z,11.02
2022-08-17T23:50:25.322Z,10.32
2022-08-17T23:52:57.789Z,10.55
2022-08-17T23:55:24.350Z,10.32
2022-08-17T23:57:50.887Z,10.18
